createdAt,value
2022-10-17T00:02:33.829Z,2.75
2022-10-17T00:05:58.425Z,2.10
2022-10-17T00:09:09.870Z,3.40
2022-10-17T00:12:23.859Z,4.27
2022-10-17T00:15:35.970Z,2.83
2022-10-17T00:19:01.856Z,4.05
2022-10-17T00:22:01.882Z,4.97
2022-10-17T00:25:14.877Z,1.90
2022-10-17T00:28:14.894Z,4.33
2022-10-17T00:31:38.915Z,2.17
2022-10-17T00:34:52.909Z,3.40
2022-10-17T00:38:04.933Z,4.40
2022-10-17T00:41:28.932Z,2.60
2022-10-17T00:44:59.913Z,1.95
2022-10-17T00:48:12.964Z,3.70
2022-10-17T00:51:40.128Z,2.00
2022-10-17T00:54:51.988Z,1.95
2022-10-17T00:58:16.996Z,3.50
2022-10-17T01:01:17.032Z,2.05
2022-10-17T01:04:41.002Z,2.40
2022-10-17T01:07:55.107Z,2.10
2022-10-17T01:11:20.000Z,2.53
2022-10-17T01:14:44.028Z,6.75
2022-10-17T01:18:10.062Z,1.70
2022-10-17T01:21:40.061Z,2.10
2022-10-17T01:25:13.047Z,3.70
2022-10-17T01:28:40.184Z,5.40
2022-10-17T01:32:06.118Z,5.90
2022-10-17T01:35:18.104Z,2.87
2022-10-17T01:38:43.309Z,6.07
2022-10-17T01:41:56.166Z,2.15
2022-10-17T01:45:20.151Z,5.15
2022-10-17T01:48:46.133Z,2.07
2022-10-17T01:52:13.183Z,2.65
2022-10-17T01:55:26.182Z,1.97
2022-10-17T01:58:50.197Z,2.00
2022-10-17T02:02:14.231Z,1.95
2022-10-17T02:05:40.226Z,1.85
2022-10-17T02:08:52.200Z,2.10
2022-10-17T02:12:18.278Z,2.80
2022-10-17T02:15:52.247Z,2.03
2022-10-17T02:19:19.217Z,3.27
2022-10-17T02:22:34.270Z,1.67
2022-10-17T02:25:59.233Z,2.20
2022-10-17T02:29:25.259Z,3.13
2022-10-17T02:32:50.508Z,3.13
2022-10-17T02:36:02.310Z,1.85
2022-10-17T02:39:28.353Z,7.15
2022-10-17T02:42:40.271Z,2.65
2022-10-17T02:46:07.383Z,6.63
2022-10-17T02:49:32.351Z,2.63
2022-10-17T02:52:57.367Z,4.83
2022-10-17T02:56:24.351Z,2.45
2022-10-17T02:59:48.382Z,4.80
2022-10-17T03:03:12.501Z,2.60
2022-10-17T03:06:24.389Z,2.45
2022-10-17T03:09:36.418Z,5.90
2022-10-17T03:13:03.424Z,2.97
2022-10-17T03:16:15.457Z,2.75
2022-10-17T03:19:28.432Z,2.90
2022-10-17T03:22:28.710Z,3.00
2022-10-17T03:25:43.468Z,5.75
2022-10-17T03:29:09.489Z,2.80
2022-10-17T03:32:21.435Z,3.60
2022-10-17T03:35:33.445Z,2.90
2022-10-17T03:38:57.482Z,3.20
2022-10-17T03:41:57.491Z,7.00
2022-10-17T03:45:23.525Z,3.20
2022-10-17T03:48:35.506Z,6.77
2022-10-17T03:51:50.566Z,3.90
2022-10-17T03:55:14.556Z,2.67
2022-10-17T03:58:26.625Z,4.30
2022-10-17T04:01:52.616Z,4.00
2022-10-17T04:05:05.576Z,3.15
2022-10-17T04:08:18.579Z,3.60
2022-10-17T04:11:42.591Z,3.23
2022-10-17T04:14:54.577Z,3.50
2022-10-17T04:18:20.561Z,5.73
2022-10-17T04:21:32.627Z,3.40
2022-10-17T04:24:45.637Z,4.20
2022-10-17T04:27:57.638Z,4.75
2022-10-17T04:31:21.760Z,4.80
2022-10-17T04:34:47.681Z,4.93
2022-10-17T04:38:00.631Z,5.57
2022-10-17T04:41:24.716Z,5.20
2022-10-17T04:44:37.759Z,4.10
2022-10-17T04:47:49.680Z,5.67
2022-10-17T04:51:23.237Z,4.80
2022-10-17T04:54:33.840Z,5.80
2022-10-17T04:57:59.736Z,5.00
2022-10-17T05:00:59.821Z,3.55
2022-10-17T05:04:12.724Z,4.70
2022-10-17T05:07:41.763Z,5.15
2022-10-17T05:11:06.761Z,6.45
2022-10-17T05:14:18.788Z,4.85
2022-10-17T05:17:31.876Z,4.33
2022-10-17T05:20:55.790Z,5.17
2022-10-17T05:24:21.789Z,7.75
2022-10-17T05:27:21.806Z,4.07
2022-10-17T05:30:46.844Z,4.63
2022-10-17T05:33:58.833Z,5.65
2022-10-17T05:37:10.829Z,5.03
2022-10-17T05:40:36.842Z,5.20
2022-10-17T05:43:48.852Z,5.45
2022-10-17T05:47:01.858Z,6.40
2022-10-17T05:50:13.875Z,4.30
2022-10-17T05:53:38.915Z,5.85
2022-10-17T05:57:05.890Z,7.35
2022-10-17T06:00:30.902Z,5.35
2022-10-17T06:03:54.924Z,4.20
2022-10-17T06:07:06.917Z,4.70
2022-10-17T06:10:30.927Z,4.90
2022-10-17T06:13:55.947Z,6.30
2022-10-17T06:17:13.373Z,6.63
2022-10-17T06:20:21.984Z,6.60
2022-10-17T06:23:34.963Z,8.83
2022-10-17T06:26:46.989Z,9.05
2022-10-17T06:30:12.021Z,9.80
2022-10-17T06:33:24.018Z,5.40
2022-10-17T06:36:37.047Z,5.43
2022-10-17T06:39:52.033Z,5.95
2022-10-17T06:43:05.036Z,8.20
2022-10-17T06:46:32.059Z,4.77
2022-10-17T06:49:45.087Z,7.33
2022-10-17T06:53:09.049Z,8.33
2022-10-17T06:56:33.083Z,6.25
2022-10-17T06:59:50.105Z,6.80
2022-10-17T07:03:17.138Z,7.47
2022-10-17T07:06:29.100Z,10.40
2022-10-17T07:09:42.103Z,4.90
2022-10-17T07:12:42.153Z,6.30
2022-10-17T07:16:06.142Z,4.70
2022-10-17T07:19:32.144Z,11.30
2022-10-17T07:22:57.165Z,8.25
2022-10-17T07:26:24.187Z,9.20
2022-10-17T07:29:38.395Z,5.25
2022-10-17T07:32:51.230Z,10.53
2022-10-17T07:36:18.215Z,7.03
2022-10-17T07:39:30.267Z,7.40
2022-10-17T07:42:43.351Z,6.80
2022-10-17T07:45:55.229Z,5.03
2022-10-17T07:49:07.275Z,6.40
2022-10-17T07:52:32.639Z,7.40
2022-10-17T07:55:44.279Z,6.20
2022-10-17T07:58:47.438Z,7.75
2022-10-17T08:02:11.261Z,5.80
2022-10-17T08:05:23.392Z,5.80
2022-10-17T08:08:40.283Z,7.95
2022-10-17T08:11:53.324Z,6.50
2022-10-17T08:15:05.310Z,12.50
2022-10-17T08:18:17.411Z,6.07
2022-10-17T08:21:29.391Z,5.50
2022-10-17T08:24:55.381Z,5.85
2022-10-17T08:27:55.414Z,4.90
2022-10-17T08:31:26.401Z,5.97
2022-10-17T08:34:26.556Z,6.23
2022-10-17T08:37:38.434Z,5.13
2022-10-17T08:40:52.419Z,4.75
2022-10-17T08:44:20.466Z,5.55
2022-10-17T08:47:33.500Z,5.30
2022-10-17T08:50:57.466Z,5.25
2022-10-17T08:54:10.427Z,9.27
2022-10-17T08:57:37.501Z,4.17
2022-10-17T09:00:49.509Z,5.90
2022-10-17T09:04:15.497Z,4.45
2022-10-17T09:07:27.838Z,4.63
2022-10-17T09:10:54.505Z,3.83
2022-10-17T09:14:14.554Z,5.37
2022-10-17T09:17:40.559Z,4.07
2022-10-17T09:20:52.875Z,4.80
2022-10-17T09:24:18.541Z,5.30
2022-10-17T09:27:30.838Z,4.30
2022-10-17T09:30:57.554Z,4.40
2022-10-17T09:34:09.563Z,6.70
2022-10-17T09:37:34.574Z,4.40
2022-10-17T09:40:46.602Z,4.55
2022-10-17T09:44:11.595Z,7.80
2022-10-17T09:47:36.617Z,6.10
2022-10-17T09:51:14.884Z,10.13
2022-10-17T09:54:14.641Z,4.77
2022-10-17T09:57:38.627Z,4.10
2022-10-17T10:00:50.743Z,4.53
2022-10-17T10:04:16.632Z,4.55
2022-10-17T10:07:29.441Z,5.60
2022-10-17T10:10:54.697Z,5.80
2022-10-17T10:14:06.705Z,4.17
2022-10-17T10:17:30.706Z,4.25
2022-10-17T10:20:56.733Z,4.30
2022-10-17T10:24:31.292Z,5.90
2022-10-17T10:27:42.739Z,5.47
2022-10-17T10:31:06.714Z,6.20
2022-10-17T10:34:18.762Z,4.50
2022-10-17T10:37:44.767Z,7.35
2022-10-17T10:40:56.778Z,4.17
2022-10-17T10:44:11.790Z,6.70
2022-10-17T10:47:42.789Z,9.27
2022-10-17T10:51:06.786Z,6.83
2022-10-17T10:54:20.845Z,4.33
2022-10-17T10:57:44.814Z,4.75
2022-10-17T11:00:56.911Z,4.60
2022-10-17T11:04:26.829Z,5.17
2022-10-17T11:07:40.205Z,4.13
2022-10-17T11:11:10.856Z,3.47
2022-10-17T11:14:22.910Z,4.00
2022-10-17T11:17:47.882Z,4.50
2022-10-17T11:20:59.863Z,4.80
2022-10-17T11:24:23.942Z,3.60
2022-10-17T11:27:37.907Z,3.40
2022-10-17T11:31:06.986Z,3.53
2022-10-17T11:34:16.319Z,3.40
2022-10-17T11:37:41.030Z,3.55
2022-10-17T11:40:52.994Z,3.27
2022-10-17T11:44:18.960Z,4.25
2022-10-17T11:47:30.968Z,3.50
2022-10-17T11:54:08.990Z,3.40
2022-10-17T11:57:40.043Z,6.15
2022-10-17T12:00:56.104Z,3.43
2022-10-17T12:04:27.033Z,3.05
2022-10-17T12:07:39.042Z,3.60
2022-10-17T12:11:05.059Z,4.17
2022-10-17T12:14:18.077Z,4.50
2022-10-17T12:17:54.077Z,3.70
2022-10-17T12:21:06.094Z,3.53
2022-10-17T12:24:33.112Z,4.03
2022-10-17T12:27:52.094Z,5.80
2022-10-17T12:31:17.120Z,2.80
2022-10-17T12:34:31.199Z,3.00
2022-10-17T12:38:07.270Z,5.13
2022-10-17T12:41:16.220Z,7.85
2022-10-17T12:44:44.825Z,2.50
2022-10-17T12:48:04.225Z,2.50
2022-10-17T12:51:35.855Z,4.83
2022-10-17T12:54:47.724Z,2.43
2022-10-17T12:58:17.205Z,2.63
2022-10-17T13:01:29.364Z,2.87
2022-10-17T13:04:53.648Z,2.60
2022-10-17T13:08:07.304Z,5.13
2022-10-17T13:11:31.257Z,2.87
2022-10-17T13:14:43.235Z,2.27
2022-10-17T13:17:55.314Z,3.27
2022-10-17T13:20:55.248Z,3.37
2022-10-17T13:24:21.271Z,2.53
2022-10-17T13:27:45.310Z,2.65
2022-10-17T13:31:10.281Z,2.80
2022-10-17T13:34:22.315Z,2.37
2022-10-17T13:37:34.328Z,2.43
2022-10-17T13:41:23.243Z,2.30
2022-10-17T13:44:27.345Z,2.30
2022-10-17T13:47:45.380Z,6.63
2022-10-17T13:51:11.110Z,3.10
2022-10-17T13:54:09.396Z,2.57
2022-10-17T13:57:42.376Z,2.80
2022-10-17T14:00:54.501Z,2.53
2022-10-17T14:04:20.473Z,5.03
2022-10-17T14:07:41.563Z,3.30
2022-10-17T14:10:55.451Z,3.50
2022-10-17T14:14:09.445Z,2.90
2022-10-17T14:17:37.418Z,4.45
2022-10-17T14:21:31.799Z,2.77
2022-10-17T14:24:13.446Z,2.57
2022-10-17T14:27:13.498Z,2.70
2022-10-17T14:30:57.684Z,2.90
2022-10-17T14:33:55.494Z,3.97
2022-10-17T14:37:19.504Z,2.87
2022-10-17T14:40:32.543Z,2.55
2022-10-17T14:43:56.685Z,3.80
2022-10-17T14:47:37.991Z,3.33
2022-10-17T14:50:41.616Z,3.17
2022-10-17T14:53:42.634Z,2.57
2022-10-17T14:57:07.559Z,1.83
2022-10-17T15:00:19.652Z,1.50
2022-10-17T15:03:34.596Z,2.20
2022-10-17T15:06:48.652Z,2.50
2022-10-17T15:10:16.739Z,1.67
2022-10-17T15:13:31.212Z,1.93
2022-10-17T15:16:55.622Z,1.17
2022-10-17T15:19:55.674Z,1.30
2022-10-17T15:23:23.616Z,1.87
2022-10-17T15:26:39.754Z,1.50
2022-10-17T15:29:51.725Z,1.27
2022-10-17T15:32:51.697Z,1.07
2022-10-17T15:36:15.683Z,1.20
2022-10-17T15:39:30.710Z,1.40
2022-10-17T15:42:54.684Z,1.20
2022-10-17T15:46:06.715Z,1.35
2022-10-17T15:49:30.669Z,1.17
2022-10-17T15:52:42.748Z,0.93
2022-10-17T15:56:11.844Z,1.30
2022-10-17T15:59:23.732Z,1.00
2022-10-17T16:02:47.763Z,0.75
2022-10-17T16:06:00.810Z,1.25
2022-10-17T16:09:12.779Z,0.80
2022-10-17T16:12:38.855Z,0.83
2022-10-17T16:15:50.769Z,0.80
2022-10-17T16:19:03.461Z,7.13
2022-10-17T16:22:06.833Z,0.90
2022-10-17T16:25:32.935Z,1.15
2022-10-17T16:28:46.873Z,1.20
2022-10-17T16:32:10.932Z,8.93
2022-10-17T16:35:11.842Z,2.93
2022-10-17T16:38:23.975Z,3.10
2022-10-17T16:41:38.882Z,2.87
2022-10-17T16:45:04.874Z,3.75
2022-10-17T16:48:05.873Z,2.67
2022-10-17T16:51:17.918Z,2.90
2022-10-17T16:54:17.936Z,2.63
2022-10-17T16:57:29.989Z,3.13
2022-10-17T17:00:43.962Z,3.25
2022-10-17T17:04:07.956Z,2.55
2022-10-17T17:07:07.964Z,2.75
2022-10-17T17:10:21.976Z,1.90
2022-10-17T17:13:22.021Z,2.33
2022-10-17T17:16:48.068Z,2.03
2022-10-17T17:19:48.031Z,2.95
2022-10-17T17:23:00.029Z,2.63
2022-10-17T17:26:00.003Z,6.30
2022-10-17T17:29:25.034Z,1.70
2022-10-17T17:32:38.073Z,1.70
2022-10-17T17:36:04.068Z,2.10
2022-10-17T17:39:19.057Z,2.10
2022-10-17T17:42:44.069Z,2.05
2022-10-17T17:45:44.096Z,2.00
2022-10-17T17:49:10.137Z,1.90
2022-10-17T17:52:10.112Z,6.57
2022-10-17T17:55:23.148Z,6.90
2022-10-17T17:58:35.107Z,2.30
2022-10-17T18:01:59.191Z,1.83
2022-10-17T18:05:26.135Z,1.90
2022-10-17T18:08:26.198Z,2.17
2022-10-17T18:11:50.156Z,1.95
2022-10-17T18:14:50.198Z,1.80
2022-10-17T18:18:02.147Z,1.87
2022-10-17T18:21:16.171Z,2.00
2022-10-17T18:24:28.179Z,1.70
2022-10-17T18:27:40.256Z,1.90
2022-10-17T18:30:53.243Z,2.33
2022-10-17T18:33:53.220Z,1.87
2022-10-17T18:37:18.224Z,2.00
2022-10-17T18:40:19.271Z,2.27
2022-10-17T18:43:32.277Z,2.73
2022-10-17T18:49:57.272Z,2.90
2022-10-17T18:53:11.278Z,3.87
2022-10-17T18:56:35.286Z,3.20
2022-10-17T18:59:35.367Z,2.93
2022-10-17T19:03:00.329Z,5.10
2022-10-17T19:06:01.160Z,6.70
2022-10-17T19:09:26.462Z,2.73
2022-10-17T19:12:26.372Z,7.07
2022-10-17T19:15:38.369Z,4.00
2022-10-17T19:18:38.451Z,6.43
2022-10-17T19:22:02.364Z,4.75
2022-10-17T19:25:19.366Z,5.50
2022-10-17T19:28:31.456Z,5.15
2022-10-17T19:31:31.448Z,6.07
2022-10-17T19:34:43.439Z,5.20
2022-10-17T19:37:55.414Z,10.30
2022-10-17T19:41:21.432Z,8.10
2022-10-17T19:44:22.448Z,5.90
2022-10-17T19:47:34.455Z,6.80
2022-10-17T19:50:46.517Z,6.30
2022-10-17T19:54:10.491Z,10.65
2022-10-17T19:57:23.475Z,11.20
2022-10-17T20:00:35.524Z,8.87
2022-10-17T20:03:48.514Z,10.27
2022-10-17T20:07:00.529Z,6.90
2022-10-17T20:10:12.526Z,6.03
2022-10-17T20:13:26.613Z,7.77
2022-10-17T20:16:50.563Z,7.53
2022-10-17T20:19:50.557Z,9.60
2022-10-17T20:23:14.551Z,8.20
2022-10-17T20:26:37.448Z,12.65
2022-10-17T20:29:52.593Z,7.70
2022-10-17T20:32:55.245Z,9.07
2022-10-17T20:36:04.661Z,12.13
2022-10-17T20:39:19.595Z,10.67
2022-10-17T20:42:43.642Z,8.35
2022-10-17T20:46:04.610Z,7.75
2022-10-17T20:49:21.695Z,7.47
2022-10-17T20:52:21.716Z,8.35
2022-10-17T20:55:33.660Z,9.97
2022-10-17T20:58:33.749Z,11.50
2022-10-17T21:02:00.789Z,8.67
2022-10-17T21:05:00.714Z,11.00
2022-10-17T21:08:12.753Z,12.25
2022-10-17T21:11:34.745Z,10.33
2022-10-17T21:14:46.716Z,5.80
2022-10-17T21:18:00.752Z,6.60
2022-10-17T21:21:33.788Z,6.20
2022-10-17T21:24:33.773Z,8.20
2022-10-17T21:27:45.774Z,6.40
2022-10-17T21:30:45.787Z,5.65
2022-10-17T21:34:14.821Z,7.40
2022-10-17T21:37:26.809Z,11.00
2022-10-17T21:40:38.808Z,7.30
2022-10-17T21:43:38.828Z,7.53
2022-10-17T21:46:51.830Z,10.50
2022-10-17T21:50:05.853Z,8.30
2022-10-17T21:53:18.863Z,6.03
2022-10-17T21:56:30.854Z,8.67
2022-10-17T21:59:43.870Z,6.53
2022-10-17T22:02:43.903Z,8.05
2022-10-17T22:06:37.619Z,5.70
2022-10-17T22:09:21.968Z,6.50
2022-10-17T22:12:49.908Z,12.53
2022-10-17T22:15:49.923Z,12.63
2022-10-17T22:19:15.000Z,6.75
2022-10-17T22:22:27.949Z,8.20
2022-10-17T22:25:39.958Z,11.10
2022-10-17T22:29:03.981Z,7.57
2022-10-17T22:32:21.524Z,17.35
2022-10-17T22:35:18.996Z,6.10
2022-10-17T22:38:44.993Z,6.55
2022-10-17T22:41:57.010Z,6.80
2022-10-17T22:45:09.024Z,10.70
2022-10-17T22:48:21.030Z,12.60
2022-10-17T22:51:33.079Z,6.63
2022-10-17T22:54:46.060Z,7.63
2022-10-17T22:58:01.113Z,8.10
2022-10-17T23:01:13.141Z,10.85
2022-10-17T23:04:25.091Z,11.95
2022-10-17T23:07:25.115Z,6.90
2022-10-17T23:10:52.079Z,10.45
2022-10-17T23:14:04.236Z,12.23
2022-10-17T23:17:32.084Z,11.30
2022-10-17T23:20:32.135Z,10.25
2022-10-17T23:23:56.106Z,10.40
2022-10-17T23:27:10.151Z,6.60
2022-10-17T23:30:35.121Z,6.70
2022-10-17T23:33:35.186Z,6.90
2022-10-17T23:36:59.150Z,5.90
2022-10-17T23:40:00.144Z,8.73
2022-10-17T23:43:28.208Z,5.47
2022-10-17T23:46:28.205Z,7.10
2022-10-17T23:49:41.211Z,12.20
2022-10-17T23:52:41.417Z,4.93
2022-10-17T23:55:54.245Z,6.25
2022-10-17T23:59:08.213Z,7.65
